createdAt,value
2018-09-26T00:01:17.852Z,103517.13
2018-09-26T00:03:50.320Z,103517.13
2018-09-26T00:06:19.427Z,103515.79
2018-09-26T00:08:48.752Z,103505.48
2018-09-26T00:11:17.848Z,103513.14
2018-09-26T00:13:47.466Z,103512.22
2018-09-26T00:16:16.676Z,103508.65
2018-09-26T00:18:45.756Z,103506.42
2018-09-26T00:21:14.894Z,103504.61
2018-09-26T00:23:43.982Z,103505.08
2018-09-26T00:26:13.108Z,103499.23
2018-09-26T00:28:42.182Z,103499.69
2018-09-26T00:31:11.308Z,103498.35
2018-09-26T00:33:40.365Z,103498.35
2018-09-26T00:36:09.611Z,103497.89
2018-09-26T00:38:38.785Z,103507.77
2018-09-26T00:41:07.830Z,103510.45
2018-09-26T00:43:36.954Z,103502.39
2018-09-26T00:46:06.039Z,103498.81
2018-09-26T00:48:35.119Z,103499.70
2018-09-26T00:51:04.182Z,103496.14
2018-09-26T00:53:33.516Z,103485.38
2018-09-26T00:56:02.831Z,103487.60
2018-09-26T00:58:31.945Z,103484.03
2018-09-26T01:01:01.055Z,103480.46
2018-09-26T01:03:30.170Z,103483.15
2018-09-26T01:05:59.320Z,103485.38
2018-09-26T01:08:28.439Z,103483.56
2018-09-26T01:10:57.535Z,103482.69
2018-09-26T01:13:26.731Z,103475.97
2018-09-26T01:15:55.830Z,103470.59
2018-09-26T01:18:25.143Z,103470.16
2018-09-26T01:20:54.235Z,103467.02
2018-09-26T01:23:23.307Z,103457.15
2018-09-26T01:25:52.395Z,103455.38
2018-09-26T01:28:21.450Z,103441.92
2018-09-26T01:30:50.616Z,103440.13
2018-09-26T01:33:19.833Z,103440.13
2018-09-26T01:35:48.907Z,103435.67
2018-09-26T01:38:18.005Z,103441.05
2018-09-26T01:40:47.071Z,103432.52
2018-09-26T01:43:16.159Z,103436.09
2018-09-26T01:45:45.311Z,103425.80
2018-09-26T01:48:14.477Z,103424.04
2018-09-26T01:50:43.531Z,103420.90
2018-09-26T01:53:12.618Z,103423.13
2018-09-26T01:55:41.687Z,103421.78
2018-09-26T01:58:10.751Z,103420.44
2018-09-26T02:00:39.827Z,103415.97
2018-09-26T02:03:08.978Z,103413.70
2018-09-26T02:05:39.071Z,103406.57
2018-09-26T02:08:08.154Z,103399.38
2018-09-26T02:10:37.254Z,103402.53
2018-09-26T02:13:06.635Z,103401.19
2018-09-26T02:15:35.764Z,103397.62
2018-09-26T02:18:04.872Z,103400.31
2018-09-26T02:20:34.011Z,103398.08
2018-09-26T02:23:03.080Z,103398.03
2018-09-26T02:25:32.159Z,103394.47
2018-09-26T02:28:01.257Z,103391.79
2018-09-26T02:30:30.343Z,103387.75
2018-09-26T02:32:59.404Z,103381.03
2018-09-26T02:35:28.530Z,103377.05
2018-09-26T02:37:57.757Z,103378.80
2018-09-26T02:40:26.839Z,103375.64
2018-09-26T02:42:55.831Z,103376.52
2018-09-26T02:45:24.907Z,103382.83
2018-09-26T02:47:53.999Z,103379.26
2018-09-26T02:50:23.104Z,103385.06
2018-09-26T02:52:52.371Z,103382.84
2018-09-26T02:55:21.519Z,103384.59
2018-09-26T02:57:50.616Z,103379.67
2018-09-26T03:00:19.679Z,103380.09
2018-09-26T03:02:48.805Z,103378.75
2018-09-26T03:05:17.899Z,103381.00
2018-09-26T03:07:47.059Z,103385.92
2018-09-26T03:10:16.209Z,103384.58
2018-09-26T03:12:45.273Z,103380.54
2018-09-26T03:15:14.344Z,103381.88
2018-09-26T03:17:43.537Z,103384.12
2018-09-26T03:20:12.751Z,103376.52
2018-09-26T03:22:41.855Z,103368.92
2018-09-26T03:25:10.991Z,103374.76
2018-09-26T03:27:40.075Z,103383.30
2018-09-26T03:30:09.186Z,103381.95
2018-09-26T03:32:38.410Z,103382.37
2018-09-26T03:35:07.539Z,103376.56
2018-09-26T03:37:36.642Z,103369.84
2018-09-26T03:40:05.712Z,103368.93
2018-09-26T03:42:34.795Z,103358.69
2018-09-26T03:45:04.250Z,103358.22
2018-09-26T03:47:33.348Z,103358.22
2018-09-26T03:50:02.440Z,103351.05
2018-09-26T03:52:31.515Z,103347.93
2018-09-26T03:55:00.608Z,103343.84
2018-09-26T03:57:29.734Z,103344.79
2018-09-26T03:59:58.846Z,103345.25
2018-09-26T04:02:27.911Z,103341.69
2018-09-26T04:04:57.108Z,103343.03
2018-09-26T04:07:26.313Z,103334.52
2018-09-26T04:09:55.360Z,103339.46
2018-09-26T04:12:24.514Z,103337.67
2018-09-26T04:14:53.691Z,103334.08
2018-09-26T04:17:22.796Z,103332.73
2018-09-26T04:19:51.903Z,103334.09
2018-09-26T04:22:20.998Z,103340.82
2018-09-26T04:24:50.096Z,103336.32
2018-09-26T04:27:19.305Z,103331.87
2018-09-26T04:29:48.489Z,103326.92
2018-09-26T04:32:17.679Z,103326.89
2018-09-26T04:34:46.938Z,103327.77
2018-09-26T04:37:16.005Z,103325.95
2018-09-26T04:39:45.197Z,103324.14
2018-09-26T04:42:14.263Z,103321.91
2018-09-26T04:44:43.503Z,103320.12
2018-09-26T04:47:12.579Z,103326.41
2018-09-26T04:49:41.692Z,103318.34
2018-09-26T04:52:10.748Z,103324.63
2018-09-26T04:54:39.780Z,103320.59
2018-09-26T04:57:08.935Z,103315.26
2018-09-26T04:59:38.065Z,103313.91
2018-09-26T05:02:07.147Z,103321.98
2018-09-26T05:04:36.200Z,103321.06
2018-09-26T05:07:05.364Z,103315.27
2018-09-26T05:09:34.568Z,103323.34
2018-09-26T05:12:03.704Z,103328.25
2018-09-26T05:14:32.921Z,103331.87
2018-09-26T05:17:02.171Z,103328.72
2018-09-26T05:19:31.303Z,103326.02
2018-09-26T05:22:00.447Z,103328.25
2018-09-26T05:24:29.540Z,103325.56
2018-09-26T05:26:58.735Z,103323.75
2018-09-26T05:29:27.891Z,103313.95
2018-09-26T05:31:56.912Z,103317.98
2018-09-26T05:34:25.995Z,103316.63
2018-09-26T05:36:54.999Z,103311.73
2018-09-26T05:39:24.183Z,103311.72
2018-09-26T05:41:53.475Z,103309.03
2018-09-26T05:44:22.673Z,103309.95
2018-09-26T05:46:51.759Z,103305.46
2018-09-26T05:49:20.876Z,103302.78
2018-09-26T05:51:49.967Z,103303.23
2018-09-26T05:54:19.234Z,103302.78
2018-09-26T05:56:48.377Z,103308.63
2018-09-26T05:59:17.613Z,103300.58
2018-09-26T06:01:46.780Z,103301.49
2018-09-26T06:04:15.960Z,103296.55
2018-09-26T06:06:45.051Z,103297.46
2018-09-26T06:09:14.795Z,103291.22
2018-09-26T06:11:44.456Z,103295.25
2018-09-26T06:14:14.160Z,103297.94
2018-09-26T06:16:43.301Z,103295.25
2018-09-26T06:19:12.419Z,103297.95
2018-09-26T06:21:41.415Z,103302.44
2018-09-26T06:24:10.487Z,103306.47
2018-09-26T06:26:39.602Z,103311.39
2018-09-26T06:29:08.875Z,103311.39
2018-09-26T06:31:38.038Z,103305.08
2018-09-26T06:34:07.187Z,103303.32
2018-09-26T06:36:36.273Z,103303.32
2018-09-26T06:39:08.550Z,103304.66
2018-09-26T06:41:37.628Z,103305.55
2018-09-26T06:44:06.976Z,103305.08
2018-09-26T06:46:36.134Z,103307.35
2018-09-26T06:49:05.252Z,103307.37
2018-09-26T06:51:34.336Z,103314.97
2018-09-26T06:54:03.769Z,103318.57
2018-09-26T06:56:33.096Z,103314.97
2018-09-26T06:59:02.154Z,103307.35
2018-09-26T07:01:31.264Z,103304.19
2018-09-26T07:04:00.425Z,103302.84
2018-09-26T07:06:29.504Z,103296.95
2018-09-26T07:08:58.598Z,103300.97
2018-09-26T07:11:27.667Z,103304.98
2018-09-26T07:13:56.707Z,103301.81
2018-09-26T07:16:25.925Z,103306.26
2018-09-26T07:18:54.991Z,103304.84
2018-09-26T07:21:24.197Z,103306.59
2018-09-26T07:23:53.372Z,103315.52
2018-09-26T07:26:22.725Z,103319.55
2018-09-26T07:28:51.813Z,103330.70
2018-09-26T07:31:21.043Z,103320.34
2018-09-26T07:33:50.198Z,103309.92
2018-09-26T07:36:19.372Z,103310.38
2018-09-26T07:38:48.500Z,103315.75
2018-09-26T07:41:17.560Z,103305.46
2018-09-26T07:43:46.668Z,103310.79
2018-09-26T07:46:15.791Z,103321.06
2018-09-26T07:48:44.839Z,103319.31
2018-09-26T07:51:13.972Z,103323.36
2018-09-26T07:53:44.112Z,103319.79
2018-09-26T07:56:13.188Z,103314.87
2018-09-26T07:58:42.155Z,103311.73
2018-09-26T08:01:11.392Z,103313.96
2018-09-26T08:03:40.590Z,103313.55
2018-09-26T08:06:09.888Z,103313.55
2018-09-26T08:08:39.526Z,103305.49
2018-09-26T08:11:08.737Z,103302.86
2018-09-26T08:13:38.113Z,103309.11
2018-09-26T08:16:07.294Z,103310.92
2018-09-26T08:18:36.397Z,103314.44
2018-09-26T08:21:05.680Z,103320.75
2018-09-26T08:23:34.786Z,103318.99
2018-09-26T08:26:03.876Z,103318.53
2018-09-26T08:28:32.972Z,103327.46
2018-09-26T08:31:02.144Z,103331.45
2018-09-26T08:33:31.246Z,103334.62
2018-09-26T08:36:00.370Z,103337.36
2018-09-26T08:38:29.430Z,103346.77
2018-09-26T08:40:58.493Z,103347.67
2018-09-26T08:43:27.632Z,103333.79
2018-09-26T08:45:56.748Z,103333.79
2018-09-26T08:48:26.010Z,103330.65
2018-09-26T08:50:55.119Z,103332.44
2018-09-26T08:53:24.178Z,103332.44
2018-09-26T08:55:53.249Z,103330.63
2018-09-26T08:58:22.449Z,103332.86
2018-09-26T09:00:52.917Z,103340.00
2018-09-26T09:03:22.096Z,103336.39
2018-09-26T09:05:51.923Z,103335.86
2018-09-26T09:08:21.044Z,103337.19
2018-09-26T09:10:50.161Z,103338.95
2018-09-26T09:13:19.285Z,103337.14
2018-09-26T09:15:48.640Z,103337.59
2018-09-26T09:18:23.193Z,103333.09
2018-09-26T09:20:57.735Z,103342.02
2018-09-26T09:23:26.925Z,103337.47
2018-09-26T09:25:56.093Z,103341.95
2018-09-26T09:28:25.183Z,103344.16
2018-09-26T09:30:54.272Z,103344.16
2018-09-26T09:33:23.368Z,103346.78
2018-09-26T09:35:52.488Z,103347.25
2018-09-26T09:38:21.614Z,103342.77
2018-09-26T09:40:50.886Z,103348.55
2018-09-26T09:43:20.081Z,103344.51
2018-09-26T09:45:49.213Z,103337.78
2018-09-26T09:48:18.306Z,103332.38
2018-09-26T09:50:47.454Z,103334.14
2018-09-26T09:53:19.238Z,103332.36
2018-09-26T09:55:50.112Z,103327.80
2018-09-26T09:58:19.736Z,103324.68
2018-09-26T10:00:54.416Z,103322.41
2018-09-26T10:03:23.846Z,103326.84
2018-09-26T10:05:53.245Z,103321.92
2018-09-26T10:08:22.874Z,103328.11
2018-09-26T10:10:52.126Z,103328.04
2018-09-26T10:13:21.178Z,103324.00
2018-09-26T10:15:50.763Z,103327.09
2018-09-26T10:18:19.956Z,103317.67
2018-09-26T10:20:49.045Z,103322.13
2018-09-26T10:23:18.151Z,103318.11
2018-09-26T10:25:47.263Z,103316.77
2018-09-26T10:28:16.600Z,103315.42
2018-09-26T10:30:45.666Z,103312.73
2018-09-26T10:33:14.791Z,103313.20
2018-09-26T10:35:43.869Z,103316.31
2018-09-26T10:38:13.173Z,103320.77
2018-09-26T10:40:42.519Z,103314.50
2018-09-26T10:43:11.574Z,103318.52
2018-09-26T10:45:40.780Z,103310.87
2018-09-26T10:48:09.988Z,103317.61
2018-09-26T10:50:39.090Z,103315.38
2018-09-26T10:53:08.191Z,103313.08
2018-09-26T10:55:37.251Z,103309.92
2018-09-26T10:58:12.747Z,103309.49
2018-09-26T11:00:41.896Z,103305.89
2018-09-26T11:03:10.967Z,103304.54
2018-09-26T11:05:40.139Z,103300.48
2018-09-26T11:08:09.336Z,103304.05
2018-09-26T11:10:38.791Z,103300.89
2018-09-26T11:13:07.923Z,103306.26
2018-09-26T11:15:36.991Z,103305.77
2018-09-26T11:18:06.229Z,103301.75
2018-09-26T11:20:35.299Z,103302.63
2018-09-26T11:23:04.628Z,103297.77
2018-09-26T11:25:33.775Z,103292.80
2018-09-26T11:28:02.871Z,103284.72
2018-09-26T11:30:32.110Z,103292.78
2018-09-26T11:33:01.336Z,103289.15
2018-09-26T11:35:30.497Z,103286.45
2018-09-26T11:37:59.687Z,103277.52
2018-09-26T11:40:28.756Z,103275.22
2018-09-26T11:42:57.867Z,103284.63
2018-09-26T11:45:27.945Z,103290.48
2018-09-26T11:47:57.225Z,103283.28
2018-09-26T11:50:26.348Z,103275.14
2018-09-26T11:52:55.574Z,103262.54
2018-09-26T11:55:24.700Z,103269.73
2018-09-26T11:57:53.806Z,103263.42
2018-09-26T12:00:22.923Z,103265.19
2018-09-26T12:02:52.203Z,103260.30
2018-09-26T12:05:21.266Z,103267.05
2018-09-26T12:07:50.492Z,103257.60
2018-09-26T12:10:19.581Z,103258.03
2018-09-26T12:12:48.882Z,103258.50
2018-09-26T12:15:17.989Z,103258.95
2018-09-26T12:17:47.073Z,103258.03
2018-09-26T12:20:16.144Z,103243.20
2018-09-26T12:22:45.199Z,103237.33
2018-09-26T12:25:14.373Z,103231.55
2018-09-26T12:27:43.776Z,103236.94
2018-09-26T12:30:13.028Z,103233.75
2018-09-26T12:32:42.337Z,103229.72
2018-09-26T12:35:11.607Z,103231.53
2018-09-26T12:37:40.874Z,103227.98
2018-09-26T12:40:10.215Z,103235.05
2018-09-26T12:42:39.866Z,103228.30
2018-09-26T12:45:09.251Z,103227.03
2018-09-26T12:47:38.361Z,103231.45
2018-09-26T12:50:07.684Z,103227.36
2018-09-26T12:52:36.773Z,103229.61
2018-09-26T12:55:05.960Z,103226.06
2018-09-26T12:57:35.303Z,103226.95
2018-09-26T13:00:04.515Z,103217.52
2018-09-26T13:02:33.810Z,103224.64
2018-09-26T13:05:03.215Z,103222.80
2018-09-26T13:07:32.412Z,103207.03
2018-09-26T13:10:01.540Z,103203.87
2018-09-26T13:12:38.684Z,103211.86
2018-09-26T13:15:07.843Z,103200.68
2018-09-26T13:17:37.193Z,103195.79
2018-09-26T13:20:07.015Z,103197.60
2018-09-26T13:22:36.340Z,103196.28
2018-09-26T13:25:05.459Z,103189.03
2018-09-26T13:27:35.411Z,103191.66
2018-09-26T13:30:09.837Z,103189.94
2018-09-26T13:32:39.188Z,103191.75
2018-09-26T13:35:08.371Z,103189.84
2018-09-26T13:37:38.027Z,103191.75
2018-09-26T13:40:07.211Z,103191.34
2018-09-26T13:42:36.501Z,103191.36
2018-09-26T13:45:05.599Z,103189.14
2018-09-26T13:47:34.693Z,103186.91
2018-09-26T13:50:03.797Z,103187.33
2018-09-26T13:52:33.155Z,103189.08
2018-09-26T13:55:02.279Z,103189.52
2018-09-26T13:57:31.375Z,103191.34
2018-09-26T14:00:00.464Z,103189.55
2018-09-26T14:02:29.587Z,103187.22
2018-09-26T14:04:58.666Z,103186.77
2018-09-26T14:07:27.771Z,103187.70
2018-09-26T14:09:56.873Z,103183.67
2018-09-26T14:12:26.062Z,103193.02
2018-09-26T14:14:55.339Z,103198.31
2018-09-26T14:17:24.545Z,103185.38
2018-09-26T14:19:53.859Z,103186.25
2018-09-26T14:22:23.045Z,103177.23
2018-09-26T14:24:52.473Z,103180.42
2018-09-26T14:27:21.571Z,103166.52
2018-09-26T14:29:50.784Z,103173.26
2018-09-26T14:32:20.224Z,103173.26
2018-09-26T14:34:49.472Z,103180.81
2018-09-26T14:37:18.683Z,103179.46
2018-09-26T14:39:47.905Z,103183.50
2018-09-26T14:42:17.431Z,103179.46
2018-09-26T14:44:46.528Z,103176.36
2018-09-26T14:47:15.717Z,103171.44
2018-09-26T14:49:45.061Z,103166.05
2018-09-26T14:52:14.147Z,103159.70
2018-09-26T14:54:43.215Z,103159.80
2018-09-26T14:57:12.394Z,103163.30
2018-09-26T14:59:42.096Z,103169.60
2018-09-26T15:02:11.570Z,103170.50
2018-09-26T15:04:40.820Z,103164.71
2018-09-26T15:07:10.017Z,103163.77
2018-09-26T15:09:39.206Z,103156.57
2018-09-26T15:12:08.391Z,103156.16
2018-09-26T15:14:37.706Z,103156.16
2018-09-26T15:17:07.058Z,103154.81
2018-09-26T15:19:36.133Z,103155.20
2018-09-26T15:22:05.222Z,103154.31
2018-09-26T15:24:34.291Z,103153.47
2018-09-26T15:27:03.412Z,103152.09
2018-09-26T15:29:32.696Z,103149.84
2018-09-26T15:32:01.812Z,103150.30
2018-09-26T15:34:30.927Z,103161.02
2018-09-26T15:37:00.028Z,103147.61
2018-09-26T15:39:29.128Z,103145.80
2018-09-26T15:41:58.316Z,103150.25
2018-09-26T15:44:27.592Z,103148.47
2018-09-26T15:46:56.910Z,103148.48
2018-09-26T15:49:26.128Z,103147.12
2018-09-26T15:51:55.180Z,103152.50
2018-09-26T15:54:24.319Z,103151.54
2018-09-26T15:56:53.620Z,103144.81
2018-09-26T15:59:22.896Z,103144.34
2018-09-26T16:01:52.014Z,103136.78
2018-09-26T16:04:21.255Z,103141.26
2018-09-26T16:06:50.575Z,103135.02
2018-09-26T16:09:19.739Z,103129.61
2018-09-26T16:11:48.822Z,103122.41
2018-09-26T16:14:17.906Z,103120.63
2018-09-26T16:16:47.176Z,103121.03
2018-09-26T16:19:16.303Z,103115.63
2018-09-26T16:21:45.495Z,103110.27
2018-09-26T16:24:14.627Z,103109.77
2018-09-26T16:26:43.907Z,103110.14
2018-09-26T16:29:12.960Z,103102.97
2018-09-26T16:31:42.132Z,103096.30
2018-09-26T16:34:11.354Z,103092.28
2018-09-26T16:36:40.586Z,103101.33
2018-09-26T16:39:11.208Z,103096.82
2018-09-26T16:41:40.468Z,103103.06
2018-09-26T16:44:09.689Z,103103.94
2018-09-26T16:46:38.884Z,103098.05
2018-09-26T16:49:08.035Z,103093.13
2018-09-26T16:51:37.210Z,103099.45
2018-09-26T16:54:06.331Z,103108.89
2018-09-26T16:56:35.600Z,103103.03
2018-09-26T16:59:04.684Z,103101.21
2018-09-26T17:01:33.888Z,103107.01
2018-09-26T17:04:03.002Z,103102.09
2018-09-26T17:06:32.367Z,103101.19
2018-09-26T17:09:01.549Z,103101.19
2018-09-26T17:11:30.719Z,103101.63
2018-09-26T17:13:59.906Z,103102.56
2018-09-26T17:16:28.994Z,103089.19
2018-09-26T17:18:58.206Z,103103.03
2018-09-26T17:21:27.351Z,103104.37
2018-09-26T17:23:56.486Z,103105.75
2018-09-26T17:26:25.690Z,103107.98
2018-09-26T17:28:54.905Z,103110.27
2018-09-26T17:31:24.060Z,103108.04
2018-09-26T17:33:53.167Z,103108.92
2018-09-26T17:36:22.258Z,103118.37
2018-09-26T17:38:51.571Z,103116.59
2018-09-26T17:41:20.776Z,103117.00
2018-09-26T17:43:49.888Z,103118.37
2018-09-26T17:46:19.167Z,103107.59
2018-09-26T17:48:48.484Z,103106.25
2018-09-26T17:51:17.676Z,103109.85
2018-09-26T17:53:46.772Z,103110.73
2018-09-26T17:56:15.936Z,103110.67
2018-09-26T17:58:45.074Z,103118.31
2018-09-26T18:01:14.269Z,103119.59
2018-09-26T18:03:43.338Z,103115.63
2018-09-26T18:06:12.468Z,103112.45
2018-09-26T18:08:41.590Z,103112.92
2018-09-26T18:11:10.839Z,103114.27
2018-09-26T18:13:39.909Z,103114.27
2018-09-26T18:16:08.983Z,103120.09
2018-09-26T18:18:38.061Z,103130.88
2018-09-26T18:21:07.114Z,103128.70
2018-09-26T18:23:36.189Z,103119.72
2018-09-26T18:26:05.408Z,103126.42
2018-09-26T18:28:34.627Z,103135.88
2018-09-26T18:31:03.799Z,103128.29
2018-09-26T18:33:33.083Z,103123.75
2018-09-26T18:36:02.398Z,103124.25
2018-09-26T18:38:31.532Z,103128.29
2018-09-26T18:41:00.808Z,103127.00
2018-09-26T18:43:29.888Z,103131.92
2018-09-26T18:45:58.978Z,103118.48
2018-09-26T18:48:28.114Z,103116.70
2018-09-26T18:50:57.226Z,103113.54
2018-09-26T18:53:26.604Z,103115.36
2018-09-26T18:55:55.798Z,103109.97
2018-09-26T18:58:24.992Z,103110.47
2018-09-26T19:00:54.101Z,103114.97
2018-09-26T19:03:23.300Z,103124.81
2018-09-26T19:05:52.356Z,103122.58
2018-09-26T19:08:21.482Z,103121.70
2018-09-26T19:10:50.678Z,103118.57
2018-09-26T19:13:19.836Z,103119.42
2018-09-26T19:15:48.956Z,103122.58
2018-09-26T19:18:18.182Z,103123.93
2018-09-26T19:20:47.269Z,103127.97
2018-09-26T19:23:16.380Z,103121.70
2018-09-26T19:25:45.518Z,103122.58
2018-09-26T19:28:14.672Z,103118.55
2018-09-26T19:30:43.870Z,103123.46
2018-09-26T19:33:13.093Z,103123.93
2018-09-26T19:35:42.274Z,103127.52
2018-09-26T19:38:11.348Z,103133.38
2018-09-26T19:40:40.487Z,103140.11
2018-09-26T19:43:09.634Z,103139.23
2018-09-26T19:45:38.957Z,103139.70
2018-09-26T19:48:08.016Z,103138.36
2018-09-26T19:50:37.352Z,103139.70
2018-09-26T19:53:06.480Z,103137.02
2018-09-26T19:55:35.620Z,103133.88
2018-09-26T19:58:04.746Z,103130.28
2018-09-26T20:00:33.811Z,103128.94
2018-09-26T20:03:02.957Z,103131.56
2018-09-26T20:05:32.041Z,103130.75
2018-09-26T20:08:01.209Z,103122.23
2018-09-26T20:10:30.489Z,103124.13
2018-09-26T20:12:59.995Z,103129.54
2018-09-26T20:15:29.307Z,103127.40
2018-09-26T20:17:58.805Z,103127.87
2018-09-26T20:20:27.896Z,103132.90
2018-09-26T20:22:57.083Z,103126.63
2018-09-26T20:25:26.428Z,103122.59
2018-09-26T20:27:55.488Z,103123.09
2018-09-26T20:30:24.591Z,103126.69
2018-09-26T20:32:53.891Z,103125.87
2018-09-26T20:35:23.122Z,103132.16
2018-09-26T20:37:52.501Z,103129.92
2018-09-26T20:40:21.562Z,103133.09
2018-09-26T20:42:50.698Z,103136.27
2018-09-26T20:45:19.840Z,103134.05
2018-09-26T20:47:49.152Z,103130.91
2018-09-26T20:50:18.316Z,103122.41
2018-09-26T20:52:47.440Z,103122.43
2018-09-26T20:55:16.592Z,103113.48
2018-09-26T20:57:45.808Z,103117.52
2018-09-26T21:00:16.744Z,103117.07
2018-09-26T21:02:45.845Z,103117.13
2018-09-26T21:05:14.959Z,103114.37
2018-09-26T21:07:44.151Z,103111.75
2018-09-26T21:10:13.647Z,103116.22
2018-09-26T21:12:42.812Z,103123.86
2018-09-26T21:15:13.735Z,103124.73
2018-09-26T21:17:42.964Z,103121.63
2018-09-26T21:20:12.153Z,103121.19
2018-09-26T21:22:41.217Z,103116.27
2018-09-26T21:25:10.348Z,103115.37
2018-09-26T21:27:39.760Z,103122.95
2018-09-26T21:30:08.847Z,103114.42
2018-09-26T21:32:37.979Z,103116.64
2018-09-26T21:35:07.144Z,103116.64
2018-09-26T21:37:36.332Z,103121.08
2018-09-26T21:40:05.577Z,103121.06
2018-09-26T21:42:34.773Z,103117.02
2018-09-26T21:45:03.877Z,103110.70
2018-09-26T21:47:32.973Z,103112.02
2018-09-26T21:50:02.209Z,103114.66
2018-09-26T21:52:31.577Z,103120.02
2018-09-26T21:55:00.885Z,103120.48
2018-09-26T21:57:30.106Z,103111.94
2018-09-26T21:59:59.162Z,103111.88
2018-09-26T22:02:28.324Z,103114.55
2018-09-26T22:04:57.347Z,103114.08
2018-09-26T22:07:26.586Z,103125.31
2018-09-26T22:09:55.724Z,103126.69
2018-09-26T22:12:24.875Z,103128.95
2018-09-26T22:14:53.935Z,103122.23
2018-09-26T22:17:23.142Z,103117.81
2018-09-26T22:19:52.242Z,103111.11
2018-09-26T22:22:21.426Z,103120.53
2018-09-26T22:24:50.553Z,103113.86
2018-09-26T22:27:19.772Z,103111.17
2018-09-26T22:29:48.977Z,103108.50
2018-09-26T22:32:18.106Z,103109.84
2018-09-26T22:34:47.282Z,103112.54
2018-09-26T22:37:16.304Z,103112.13
2018-09-26T22:39:45.400Z,103115.29
2018-09-26T22:42:14.487Z,103118.42
2018-09-26T22:44:43.724Z,103119.82
2018-09-26T22:47:12.836Z,103112.18
2018-09-26T22:49:41.892Z,103113.53
2018-09-26T22:52:16.629Z,103109.92
2018-09-26T22:54:45.790Z,103118.94
2018-09-26T22:57:15.042Z,103114.45
2018-09-26T22:59:44.200Z,103110.41
2018-09-26T23:02:13.448Z,103107.78
2018-09-26T23:04:42.614Z,103111.35
2018-09-26T23:07:12.068Z,103104.63
2018-09-26T23:09:42.162Z,103096.55
2018-09-26T23:12:11.302Z,103095.61
2018-09-26T23:14:40.318Z,103098.86
2018-09-26T23:17:09.508Z,103097.48
2018-09-26T23:19:38.613Z,103093.88
2018-09-26T23:22:07.971Z,103094.35
2018-09-26T23:24:36.976Z,103090.78
2018-09-26T23:27:06.498Z,103088.56
2018-09-26T23:29:36.028Z,103085.89
2018-09-26T23:32:05.233Z,103089.03
2018-09-26T23:34:34.352Z,103082.73
2018-09-26T23:37:03.512Z,103081.39
2018-09-26T23:39:32.636Z,103079.14
2018-09-26T23:42:01.654Z,103067.93
2018-09-26T23:44:30.769Z,103067.93
2018-09-26T23:47:00.047Z,103063.89
2018-09-26T23:49:29.197Z,103066.17
2018-09-26T23:51:58.290Z,103065.30
2018-09-26T23:54:27.498Z,103070.68
2018-09-26T23:56:56.689Z,103072.03
2018-09-26T23:59:25.799Z,103074.74
